• Join FlightAware (Why Join?)
  • Login
  • US Flag 
Gobble Gobble! 
03:55AM EST


 

Airport Tracker/Info


-or-


 

Live Flight TrackerFlight Track Log ✈ N919HP ✈ 03-May-2013 ✈ KMTN - KSUT

Flight Track Log - Related Links

Times and Time Zones

All times are in EDT time to prevent confusion due to time zone crossing. See the N919HP flight status page for this flight to view local times or setup timezone preferences in your user account.

Time Position Orientation Groundspeed Altitude Reporting Facility
EDT Latitude Longitude Course Direction KTS MPH feet Rate Location/Type
01:40PM 39.3167 -76.4000 142° Southeast 149 171 700  Level Potomac TRACON
01:41PM 39.2833 -76.3667 142° Southeast 189 217 2,200 1,380 Climbing Potomac TRACON
01:42PM 39.2333 -76.3167 142° Southeast 214 246 3,500 1,260 Climbing Potomac TRACON
01:43PM 39.1833 -76.2667 142° Southeast 223 257 4,800 1,320 Climbing Potomac TRACON
01:44PM 39.1333 -76.2167 142° Southeast 221 254 6,200 1,440 Climbing Potomac TRACON
01:45PM 39.0667 -76.2167 180° South 245 282 7,700 1,440 Climbing Potomac TRACON
01:46PM 39.0000 -76.2333 191° South 239 275 9,200 1,440 Climbing Potomac TRACON
01:47PM 38.9333 -76.2500 198° South 229 264 10,700 1,260 Climbing Potomac TRACON
01:48PM 38.9015 -76.1970 198° South  Level FlightAware Approximate
01:48PM 38.8667 -76.2667 191° South 241 277 11,900  Level Potomac TRACON
01:49PM 38.8000 -76.2667 180° South 279 321 12,000  Climbing Potomac TRACON
01:50PM 38.7278 -76.2861 192° South 313 360 12,000  Level Washington Center
01:51PM 38.6464 -76.3014 188° South 318 366 12,000 180 Level Washington Center
01:52PM 38.5714 -76.3272 195° South 304 350 12,400 780 Climbing Washington Center
01:53PM 38.5042 -76.3742 209° Southwest 288 331 13,600 1,140 Climbing Washington Center
01:54PM 38.4392 -76.4239 211° Southwest 281 323 14,700 1,080 Climbing Washington Center
01:55PM 38.3722 -76.4708 209° Southwest 281 323 15,800 1,200 Climbing Washington Center
01:56PM 38.2989 -76.5203 208° Southwest 281 323 17,200 1,020 Climbing Washington Center
01:57PM 38.2339 -76.5672 210° Southwest 276 318 17,900 900 Climbing Washington Center
01:58PM 38.1689 -76.6164 211° Southwest 276 318 19,000 1,080 Climbing Washington Center
01:59PM 38.1039 -76.6606 208° Southwest 271 312 20,100 1,080 Climbing Washington Center
02:00PM 38.0308 -76.6700 186° South 263 303 21,300 1,140 Climbing Washington Center
02:01PM 37.9619 -76.6742 183° South 258 297 22,400 1,080 Climbing Washington Center
02:02PM 37.8908 -76.6811 184° South 258 297 23,500 1,140 Climbing Washington Center
02:03PM 37.8200 -76.6853 183° South 258 297 24,700 1,080 Climbing Washington Center
02:04PM 37.7531 -76.6897 183° South 258 297 25,700 600 Climbing Washington Center
02:05PM 37.6822 -76.6939 183° South 258 297 26,000 120 Climbing Washington Center
02:06PM 37.6028 -76.7006 184° South 269 310 26,000  Level Washington Center
02:07PM 37.5194 -76.7072 184° South 285 328 26,000  Level Washington Center
02:08PM 37.4358 -76.7139 184° South 298 343 26,000  Level Washington Center
02:09PM 37.3544 -76.7283 188° South 298 343 26,000  Level Washington Center
02:10PM 37.2689 -76.7400 186° South 303 349 26,000  Level Washington Center
02:11PM 37.1872 -76.7597 191° South 303 349 26,000  Level Washington Center
02:12PM 37.1097 -76.7950 200° South 303 349 26,000  Level Washington Center
02:13PM 37.0322 -76.8250 197° South 303 349 26,000  Level Washington Center
02:14PM 36.9525 -76.8575 198° South 303 349 26,000  Level Washington Center
02:15PM 36.8731 -76.8900 198° South 303 349 26,000  Level Washington Center
02:16PM 36.7956 -76.9225 199° South 303 349 26,000  Level Washington Center
02:17PM 36.7158 -76.9575 199° South 308 354 26,000  Level Washington Center
02:18PM 36.6361 -76.9872 197° South 308 354 26,000  Level Washington Center
02:19PM 36.5586 -77.0167 197° South 308 354 26,000  Level Washington Center
02:20PM 36.4789 -77.0514 199° South 308 354 26,000  Level Washington Center
02:21PM 36.4078 -77.0786 197° South 308 354 26,000  Level Washington Center
02:22PM 36.3300 -77.1106 198° South 308 354 26,000  Level Washington Center
02:23PM 36.2442 -77.1450 198° South 308 354 26,000  Level Washington Center
02:24PM 36.1686 -77.1744 197° South 303 349 26,000  Level Washington Center
02:25PM 36.1014 -77.2014 198° South 297 342 26,000  Level Washington Center
02:26PM 36.0239 -77.2331 198° South 297 342 26,000  Level Washington Center
02:27PM 35.9461 -77.2597 196° South 297 342 26,000  Level Washington Center
02:28PM 35.8686 -77.2914 198° South 292 336 26,000  Level Washington Center
02:29PM 35.7931 -77.3231 199° South 292 336 26,000  Level Washington Center
02:30PM 35.7156 -77.3494 195° South 292 336 26,000 -180 Level Washington Center
02:31PM 35.6378 -77.3811 198° South 292 336 25,700 -900 Descending Washington Center
02:32PM 35.5539 -77.4150 198° South 298 343 24,200 -1,140 Descending Washington Center
02:33PM 35.4697 -77.4486 198° South 313 360 23,500 -900 Descending Washington Center
02:34PM 35.3817 -77.4822 197° South 324 373 22,500 -1,020 Descending Washington Center
02:35PM 35.2978 -77.5133 197° South 324 373 21,500 -960 Descending Washington Center
02:36PM 35.2136 -77.5469 198° South 324 373 20,600 -960 Descending Washington Center
02:37PM 35.1297 -77.5781 197° South 324 373 19,700 -960 Descending Washington Center
02:38PM 35.0458 -77.6114 198° South 324 373 18,700 -960 Descending Washington Center
02:39PM 34.9597 -77.6447 198° South 324 373 17,800 -900 Descending Washington Center
02:40PM 34.8756 -77.6756 197° South 324 373 17,000 -900 Descending Washington Center
02:41PM 34.7914 -77.7114 199° South 324 373 16,100 -960 Descending Washington Center
02:42PM 34.7075 -77.7394 195° South 324 373 15,200 -900 Descending Washington Center
02:43PM 34.6233 -77.7753 199° South 324 373 14,300 -1,200 Descending Washington Center
02:44PM 34.5436 -77.8033 196° South 324 373 12,900 -1,500 Descending Washington Center
02:45PM 34.4639 -77.8339 198° South 313 360 11,400 -1,740 Descending Washington Center
02:46PM 34.3858 -77.8669 199° South 307 353 9,500 -1,980 Descending Washington Center
02:47PM 34.3244 -77.9181 215° Southwest 285 328 7,500 -1,980 Descending Washington Center
02:48PM 34.2547 -77.9714 212° Southwest 285 328 5,600 -1,740 Descending Washington Center
02:49PM 34.1889 -78.0247 214° Southwest 290 334 4,000 -1,200 Descending Washington Center
02:50PM 34.1189 -78.0803 213° Southwest 285 328 3,300 -540 Descending Washington Center
02:51PM 34.0614 -78.1311 216° Southwest 285 328 3,000 -360 Descending Washington Center